Time;durP1;ratioP1;P1;durP2;ratioP2;P2;SDS_P1;SDS_P2;PMS_P1;PMS_P2;Temp;Humidity;BMP_temperature;BMP_pressure;BME280_temperature;BME280_humidity;BME280_pressure;Samples;Min_cycle;Max_cycle;Signal;HPM_P1;HPM_P2
2024/04/04 00:00:01;;;;;;;4.25;1.45;;;;;;;;;;5052176;28;20100;-72
2024/04/04 00:02:27;;;;;;;4.90;1.08;;;;;;;;;;5052367;28;20029;-72
2024/04/04 00:05:00;;;;;;;3.85;1.30;;;;;;;;;;5052227;28;20437;-72
2024/04/04 00:07:26;;;;;;;4.75;0.88;;;;;;;;;;5052367;28;20025;-72
2024/04/04 00:09:52;;;;;;;1.40;0.80;;;;;;;;;;5034527;28;20036;-73
2024/04/04 00:12:21;;;;;;;4.45;1.67;;;;;;;;;;5052623;28;20418;-72
2024/04/04 00:14:48;;;;;;;2.22;1.17;;;;;;;;;;5056018;28;20032;-71
2024/04/04 00:17:14;;;;;;;3.40;1.38;;;;;;;;;;5060727;28;20025;-71
2024/04/04 00:19:40;;;;;;;4.88;1.23;;;;;;;;;;5060662;28;20495;-71
2024/04/04 00:22:06;;;;;;;4.88;1.17;;;;;;;;;;5060819;28;20037;-72
2024/04/04 00:24:32;;;;;;;3.92;1.52;;;;;;;;;;5062001;28;20452;-72
2024/04/04 00:26:58;;;;;;;5.43;0.98;;;;;;;;;;5041069;28;20400;-72
2024/04/04 00:29:24;;;;;;;1.23;0.95;;;;;;;;;;5059181;28;20078;-71
2024/04/04 00:31:51;;;;;;;7.10;0.80;;;;;;;;;;5039542;28;20029;-71
2024/04/04 00:34:17;;;;;;;3.97;1.00;;;;;;;;;;5059186;28;20472;-72
2024/04/04 00:36:43;;;;;;;4.68;1.25;;;;;;;;;;5057536;28;20060;-71
2024/04/04 00:39:09;;;;;;;1.90;0.40;;;;;;;;;;5039160;28;20054;-72
2024/04/04 00:41:35;;;;;;;2.33;1.00;;;;;;;;;;5056341;28;20036;-73
2024/04/04 00:44:01;;;;;;;3.20;0.75;;;;;;;;;;5057150;28;20029;-73
2024/04/04 00:46:27;;;;;;;4.97;0.68;;;;;;;;;;5038069;28;20060;-72
2024/04/04 00:48:55;;;;;;;3.70;0.93;;;;;;;;;;5056374;28;20388;-71
2024/04/04 00:51:21;;;;;;;1.60;0.70;;;;;;;;;;5056403;28;20464;-73
2024/04/04 00:53:47;;;;;;;3.60;1.10;;;;;;;;;;5056353;28;20384;-72
2024/04/04 00:56:13;;;;;;;2.38;0.65;;;;;;;;;;5059362;28;20024;-72
2024/04/04 00:58:39;;;;;;;3.22;1.13;;;;;;;;;;5059109;28;20025;-73
2024/04/04 01:01:06;;;;;;;1.73;0.68;;;;;;;;;;5059755;28;20033;-70
2024/04/04 01:03:32;;;;;;;3.08;0.75;;;;;;;;;;5059810;28;20040;-72
2024/04/04 01:05:58;;;;;;;2.90;1.00;;;;;;;;;;5059369;28;20032;-72
2024/04/04 01:08:24;;;;;;;2.92;1.42;;;;;;;;;;5037993;28;20029;-71
2024/04/04 01:10:50;;;;;;;5.80;1.23;;;;;;;;;;5053684;28;20078;-72
2024/04/04 01:13:16;;;;;;;4.35;1.20;;;;;;;;;;5035416;28;20120;-71
2024/04/04 01:15:43;;;;;;;2.47;0.90;;;;;;;;;;5053895;28;20048;-72
2024/04/04 01:18:08;;;;;;;1.90;1.02;;;;;;;;;;5054753;28;20250;-70
2024/04/04 01:20:35;;;;;;;2.50;1.20;;;;;;;;;;5054765;28;20104;-72
2024/04/04 01:23:01;;;;;;;2.58;1.17;;;;;;;;;;5054715;28;20040;-72
2024/04/04 01:25:27;;;;;;;4.18;1.45;;;;;;;;;;5054194;28;20029;-72
2024/04/04 01:27:53;;;;;;;2.92;0.70;;;;;;;;;;5055064;28;20422;-72
2024/04/04 01:30:19;;;;;;;5.15;0.95;;;;;;;;;;5054648;28;20471;-71
2024/04/04 01:32:45;;;;;;;3.15;0.90;;;;;;;;;;5036245;28;20040;-72
2024/04/04 01:35:11;;;;;;;3.13;1.13;;;;;;;;;;5054310;28;20032;-72
2024/04/04 01:37:37;;;;;;;3.25;0.70;;;;;;;;;;5054793;28;20029;-72
2024/04/04 01:40:04;;;;;;;3.00;0.60;;;;;;;;;;5036558;28;20029;-72
2024/04/04 01:42:30;;;;;;;3.90;0.98;;;;;;;;;;5054408;28;20148;-72
2024/04/04 01:44:56;;;;;;;2.22;0.80;;;;;;;;;;5036660;28;20036;-72
2024/04/04 01:47:22;;;;;;;1.77;0.85;;;;;;;;;;5054394;28;20043;-72
2024/04/04 01:49:48;;;;;;;3.80;0.93;;;;;;;;;;5054149;28;20028;-72
2024/04/04 01:52:14;;;;;;;3.53;1.05;;;;;;;;;;5035947;28;20017;-71
2024/04/04 01:54:40;;;;;;;2.97;0.85;;;;;;;;;;5054055;28;20025;-71
2024/04/04 01:57:27;;;;;;;2.15;0.70;;;;;;;;;;5036460;28;20487;-73
2024/04/04 01:59:53;;;;;;;2.15;0.80;;;;;;;;;;5053728;28;20033;-72
2024/04/04 02:02:19;;;;;;;4.00;1.33;;;;;;;;;;5036109;28;20095;-72
2024/04/04 02:04:45;;;;;;;6.97;1.25;;;;;;;;;;5053895;28;20025;-71
2024/04/04 02:07:11;;;;;;;1.88;0.70;;;;;;;;;;5036824;28;20399;-71
2024/04/04 02:09:37;;;;;;;2.60;0.95;;;;;;;;;;5055687;28;20029;-71
2024/04/04 02:12:03;;;;;;;2.22;0.68;;;;;;;;;;5054773;28;20371;-72
2024/04/04 02:14:29;;;;;;;2.47;0.95;;;;;;;;;;5054601;28;20025;-71
2024/04/04 02:16:55;;;;;;;3.83;0.65;;;;;;;;;;5055275;28;20025;-72
2024/04/04 02:19:21;;;;;;;3.10;0.90;;;;;;;;;;5054991;28;20025;-73
2024/04/04 02:21:47;;;;;;;2.20;0.73;;;;;;;;;;5055043;28;20032;-73
2024/04/04 02:24:13;;;;;;;4.88;0.82;;;;;;;;;;5054141;28;20025;-71
2024/04/04 02:26:39;;;;;;;2.53;0.88;;;;;;;;;;5053842;28;20478;-73
2024/04/04 02:29:05;;;;;;;6.90;1.45;;;;;;;;;;5035819;28;20035;-73
2024/04/04 02:31:31;;;;;;;4.47;0.88;;;;;;;;;;5035543;28;20025;-72
2024/04/04 02:33:57;;;;;;;3.75;0.98;;;;;;;;;;5053522;28;20013;-73
2024/04/04 02:36:28;;;;;;;2.53;1.50;;;;;;;;;;5053297;28;20388;-72
2024/04/04 02:38:54;;;;;;;3.13;0.90;;;;;;;;;;5054126;28;20582;-72
2024/04/04 02:41:20;;;;;;;3.90;1.02;;;;;;;;;;5035020;28;20025;-72
2024/04/04 02:43:46;;;;;;;2.70;0.88;;;;;;;;;;5036097;28;20028;-71
2024/04/04 02:46:12;;;;;;;4.65;1.83;;;;;;;;;;5039929;28;20048;-71
2024/04/04 02:48:38;;;;;;;4.43;1.00;;;;;;;;;;5056865;28;20025;-72
2024/04/04 02:51:05;;;;;;;4.57;1.15;;;;;;;;;;5055166;28;20344;-72
2024/04/04 02:53:31;;;;;;;5.50;1.08;;;;;;;;;;5056533;28;20021;-71
2024/04/04 02:55:58;;;;;;;3.90;1.17;;;;;;;;;;5058798;28;20028;-72
2024/04/04 02:58:25;;;;;;;4.10;1.70;;;;;;;;;;5039981;28;20024;-73
2024/04/04 03:00:51;;;;;;;3.53;1.15;;;;;;;;;;5063017;28;20017;-71
2024/04/04 03:03:17;;;;;;;3.60;1.45;;;;;;;;;;5037313;28;20032;-72
2024/04/04 03:05:43;;;;;;;2.65;1.10;;;;;;;;;;5058694;28;20025;-72
2024/04/04 03:08:10;;;;;;;6.03;1.52;;;;;;;;;;5048905;28;20021;-71
2024/04/04 03:10:36;;;;;;;6.03;1.42;;;;;;;;;;5059758;28;20037;-72
2024/04/04 03:13:03;;;;;;;6.22;1.60;;;;;;;;;;5052903;28;20013;-71
2024/04/04 03:15:29;;;;;;;3.63;1.67;;;;;;;;;;5051953;28;20052;-71
2024/04/04 03:17:55;;;;;;;5.45;1.50;;;;;;;;;;5051435;28;20044;-72
2024/04/04 03:20:21;;;;;;;5.10;1.60;;;;;;;;;;5033800;28;20025;-72
2024/04/04 03:22:47;;;;;;;13.23;1.88;;;;;;;;;;5051864;28;20025;-71
2024/04/04 03:25:13;;;;;;;4.10;1.20;;;;;;;;;;5052737;28;20037;-73
2024/04/04 03:27:40;;;;;;;4.22;1.83;;;;;;;;;;5034040;28;20083;-72
2024/04/04 03:30:07;;;;;;;4.38;1.27;;;;;;;;;;5051926;28;20106;-72
2024/04/04 03:32:33;;;;;;;6.05;1.38;;;;;;;;;;5033914;28;20029;-72
2024/04/04 03:34:59;;;;;;;4.97;1.95;;;;;;;;;;5051940;28;20017;-71
2024/04/04 03:37:25;;;;;;;3.10;1.30;;;;;;;;;;5052631;28;20021;-72
2024/04/04 03:39:55;;;;;;;3.95;1.20;;;;;;;;;;5035316;28;20029;-71
2024/04/04 03:42:22;;;;;;;2.85;1.50;;;;;;;;;;5034462;28;20390;-72
2024/04/04 03:44:51;;;;;;;3.80;1.23;;;;;;;;;;5051658;28;20127;-73
2024/04/04 03:47:17;;;;;;;3.28;1.35;;;;;;;;;;5051733;28;20111;-73
2024/04/04 03:49:43;;;;;;;5.10;1.60;;;;;;;;;;5054127;28;20514;-73
2024/04/04 03:52:09;;;;;;;2.35;1.52;;;;;;;;;;5056026;28;20056;-71
2024/04/04 03:54:35;;;;;;;6.72;1.48;;;;;;;;;;5058176;28;20017;-73
2024/04/04 03:57:01;;;;;;;2.45;1.27;;;;;;;;;;5059567;28;20017;-71
2024/04/04 03:59:27;;;;;;;3.47;1.35;;;;;;;;;;5059121;28;20032;-72
2024/04/04 04:01:55;;;;;;;4.82;1.40;;;;;;;;;;5057906;28;20582;-72
2024/04/04 04:04:21;;;;;;;6.10;1.42;;;;;;;;;;5058979;28;20531;-72
2024/04/04 04:06:47;;;;;;;3.85;1.52;;;;;;;;;;5057113;28;20057;-72
2024/04/04 04:09:13;;;;;;;4.68;1.42;;;;;;;;;;5037910;28;20061;-73
2024/04/04 04:11:39;;;;;;;4.90;1.33;;;;;;;;;;5056124;28;20383;-72
2024/04/04 04:14:05;;;;;;;3.42;1.40;;;;;;;;;;5055563;28;20051;-71
2024/04/04 04:16:31;;;;;;;2.30;1.20;;;;;;;;;;5056052;28;20028;-71
2024/04/04 04:18:57;;;;;;;2.03;1.10;;;;;;;;;;5056595;28;20029;-71
2024/04/04 04:21:26;;;;;;;2.20;1.05;;;;;;;;;;5055642;28;20021;-73
2024/04/04 04:23:53;;;;;;;1.95;0.98;;;;;;;;;;5055546;28;20037;-72
2024/04/04 04:26:19;;;;;;;2.78;1.13;;;;;;;;;;5057001;28;20039;-72
2024/04/04 04:28:46;;;;;;;5.07;0.88;;;;;;;;;;5057202;28;20028;-72
2024/04/04 04:31:28;;;;;;;8.05;1.58;;;;;;;;;;5055373;28;20025;-71
2024/04/04 04:33:55;;;;;;;4.45;1.23;;;;;;;;;;5038229;28;20025;-71
2024/04/04 04:36:23;;;;;;;8.05;1.13;;;;;;;;;;5054823;28;20029;-72
2024/04/04 04:38:49;;;;;;;1.80;0.85;;;;;;;;;;5056863;28;20131;-73
2024/04/04 04:41:15;;;;;;;1.95;0.80;;;;;;;;;;5057315;28;20131;-72
2024/04/04 04:43:46;;;;;;;1.88;0.80;;;;;;;;;;5042225;28;20029;-73
2024/04/04 04:46:16;;;;;;;4.35;0.63;;;;;;;;;;5058277;28;20029;-73
2024/04/04 04:48:42;;;;;;;2.50;0.93;;;;;;;;;;5038110;28;20044;-73
2024/04/04 04:51:08;;;;;;;3.25;0.90;;;;;;;;;;5037071;28;20021;-73
2024/04/04 04:53:35;;;;;;;5.13;1.40;;;;;;;;;;5040553;28;20147;-73
2024/04/04 04:56:01;;;;;;;3.33;0.98;;;;;;;;;;5057613;28;20045;-74
2024/04/04 04:58:27;;;;;;;3.00;1.20;;;;;;;;;;5057525;28;20029;-73
2024/04/04 05:00:53;;;;;;;3.15;0.88;;;;;;;;;;5055425;28;20037;-73
2024/04/04 05:03:20;;;;;;;2.97;0.77;;;;;;;;;;5038482;28;20033;-74
2024/04/04 05:05:47;;;;;;;5.15;0.80;;;;;;;;;;5038472;28;20487;-74
2024/04/04 05:08:13;;;;;;;3.25;0.90;;;;;;;;;;5045644;28;20074;-74
2024/04/04 05:10:39;;;;;;;5.57;1.17;;;;;;;;;;5064597;28;20029;-73
2024/04/04 05:13:05;;;;;;;4.10;1.13;;;;;;;;;;5042773;28;20537;-74
2024/04/04 05:15:31;;;;;;;5.70;1.75;;;;;;;;;;5056328;28;20072;-75
2024/04/04 05:17:57;;;;;;;2.35;0.73;;;;;;;;;;5056485;28;20013;-73
2024/04/04 05:20:23;;;;;;;7.10;1.50;;;;;;;;;;5055296;28;20021;-74
2024/04/04 05:22:49;;;;;;;8.18;1.05;;;;;;;;;;5055431;28;20028;-73
2024/04/04 05:25:15;;;;;;;7.72;1.40;;;;;;;;;;5055316;28;20526;-73
2024/04/04 05:27:41;;;;;;;4.22;1.45;;;;;;;;;;5055864;28;20032;-73
2024/04/04 05:30:14;;;;;;;4.25;1.15;;;;;;;;;;5038876;28;20025;-74
2024/04/04 05:32:43;;;;;;;6.30;1.13;;;;;;;;;;5041992;28;20387;-74
2024/04/04 05:35:09;;;;;;;5.68;1.25;;;;;;;;;;5055808;28;20025;-75
2024/04/04 05:37:36;;;;;;;4.13;1.15;;;;;;;;;;5056293;28;20021;-73
2024/04/04 05:40:03;;;;;;;9.27;1.77;;;;;;;;;;5057881;28;20537;-74
2024/04/04 05:42:29;;;;;;;7.13;1.10;;;;;;;;;;5056367;28;20036;-74
2024/04/04 05:44:55;;;;;;;7.95;1.17;;;;;;;;;;5054828;28;20029;-73
2024/04/04 05:47:21;;;;;;;5.35;1.20;;;;;;;;;;5055496;28;20537;-74
2024/04/04 05:49:47;;;;;;;8.65;1.60;;;;;;;;;;5054855;28;20033;-73
2024/04/04 05:52:14;;;;;;;6.45;1.90;;;;;;;;;;5054900;28;20025;-73
2024/04/04 05:54:40;;;;;;;9.07;2.17;;;;;;;;;;5055070;28;20518;-73
2024/04/04 05:57:06;;;;;;;8.13;2.13;;;;;;;;;;5055257;28;20044;-74
2024/04/04 05:59:33;;;;;;;4.82;1.35;;;;;;;;;;5054791;28;20033;-73
2024/04/04 06:01:59;;;;;;;10.13;1.85;;;;;;;;;;5036671;28;20033;-73
2024/04/04 06:04:26;;;;;;;13.52;1.75;;;;;;;;;;5055069;28;20123;-74
2024/04/04 06:06:52;;;;;;;4.57;1.50;;;;;;;;;;5054784;28;20032;-75
2024/04/04 06:09:18;;;;;;;6.32;1.33;;;;;;;;;;5054764;28;20033;-72
2024/04/04 06:11:44;;;;;;;13.77;2.08;;;;;;;;;;5053577;28;20467;-73
2024/04/04 06:14:10;;;;;;;5.90;1.40;;;;;;;;;;5054241;28;20029;-72
2024/04/04 06:16:36;;;;;;;8.00;1.50;;;;;;;;;;5055225;28;20104;-73
2024/04/04 06:19:03;;;;;;;5.25;1.92;;;;;;;;;;5055241;28;20020;-74
2024/04/04 06:21:29;;;;;;;6.35;1.67;;;;;;;;;;5054687;28;20049;-73
2024/04/04 06:23:55;;;;;;;7.80;1.60;;;;;;;;;;5054551;28;20029;-74
2024/04/04 06:26:25;;;;;;;6.50;1.65;;;;;;;;;;5053960;28;20025;-73
2024/04/04 06:28:52;;;;;;;6.65;1.23;;;;;;;;;;5054278;28;20039;-73
2024/04/04 06:31:18;;;;;;;5.85;1.38;;;;;;;;;;5053796;28;20017;-73
2024/04/04 06:33:44;;;;;;;7.22;1.60;;;;;;;;;;5036272;28;20025;-72
2024/04/04 06:36:10;;;;;;;10.45;1.35;;;;;;;;;;5054345;28;20041;-73
2024/04/04 06:38:36;;;;;;;5.97;1.65;;;;;;;;;;5054252;28;20092;-73
2024/04/04 06:41:03;;;;;;;8.52;1.70;;;;;;;;;;5055704;28;20021;-74
2024/04/04 06:43:29;;;;;;;9.32;2.05;;;;;;;;;;5036976;28;20017;-72
2024/04/04 06:45:55;;;;;;;5.80;1.40;;;;;;;;;;5036881;28;20036;-73
2024/04/04 06:48:21;;;;;;;6.68;1.52;;;;;;;;;;5036777;28;20344;-73
2024/04/04 06:50:47;;;;;;;11.07;3.45;;;;;;;;;;5054621;28;20067;-73
2024/04/04 06:53:14;;;;;;;6.63;1.70;;;;;;;;;;5053355;28;20128;-74
2024/04/04 06:55:40;;;;;;;8.32;1.63;;;;;;;;;;5035945;28;20025;-72
2024/04/04 06:58:06;;;;;;;7.70;1.50;;;;;;;;;;5036206;28;20036;-74
2024/04/04 07:00:32;;;;;;;11.00;3.10;;;;;;;;;;5054127;28;20025;-72
2024/04/04 07:02:58;;;;;;;7.53;1.75;;;;;;;;;;5053221;28;20024;-72
2024/04/04 07:05:25;;;;;;;8.75;2.10;;;;;;;;;;5053957;28;20376;-74
2024/04/04 07:07:51;;;;;;;7.10;1.60;;;;;;;;;;5054834;28;20095;-73
2024/04/04 07:10:17;;;;;;;7.75;1.58;;;;;;;;;;5055072;28;20095;-72
2024/04/04 07:12:43;;;;;;;8.63;1.50;;;;;;;;;;5036373;28;20059;-72
2024/04/04 07:15:09;;;;;;;9.38;1.90;;;;;;;;;;5036840;28;20100;-73
2024/04/04 07:17:35;;;;;;;7.45;1.55;;;;;;;;;;5054464;28;20048;-74
2024/04/04 07:20:01;;;;;;;8.98;2.25;;;;;;;;;;5054168;28;20033;-74
2024/04/04 07:22:27;;;;;;;4.93;1.40;;;;;;;;;;5035066;28;20181;-73
2024/04/04 07:24:53;;;;;;;5.97;1.30;;;;;;;;;;5052678;28;20053;-73
2024/04/04 07:27:19;;;;;;;6.30;1.90;;;;;;;;;;5053320;28;20051;-72
2024/04/04 07:29:47;;;;;;;8.30;2.17;;;;;;;;;;5053381;28;20442;-73
2024/04/04 07:32:13;;;;;;;11.32;1.63;;;;;;;;;;5053558;28;20032;-72
2024/04/04 07:34:39;;;;;;;13.60;2.45;;;;;;;;;;5053331;28;20052;-72
2024/04/04 07:37:05;;;;;;;6.20;1.85;;;;;;;;;;5035280;28;20022;-72
2024/04/04 07:39:33;;;;;;;8.07;1.85;;;;;;;;;;5031220;28;20021;-73
2024/04/04 07:41:59;;;;;;;7.80;2.05;;;;;;;;;;5032634;28;20124;-73
2024/04/04 07:44:26;;;;;;;7.82;1.60;;;;;;;;;;5033323;28;20048;-72
2024/04/04 07:46:52;;;;;;;11.02;2.35;;;;;;;;;;5033131;28;20033;-73
2024/04/04 07:49:18;;;;;;;10.82;1.67;;;;;;;;;;5033007;28;20431;-73
2024/04/04 07:51:44;;;;;;;8.38;1.90;;;;;;;;;;5032839;28;20022;-72
2024/04/04 07:54:11;;;;;;;7.53;1.30;;;;;;;;;;5033960;28;20027;-72
2024/04/04 07:56:37;;;;;;;6.78;2.10;;;;;;;;;;5033394;28;20514;-72
2024/04/04 07:59:03;;;;;;;8.00;1.95;;;;;;;;;;5036173;28;20052;-71
2024/04/04 08:01:29;;;;;;;7.25;1.60;;;;;;;;;;5040867;28;20029;-72
2024/04/04 08:03:56;;;;;;;6.85;1.35;;;;;;;;;;5036404;28;20021;-72
2024/04/04 08:06:22;;;;;;;7.07;1.95;;;;;;;;;;5035592;28;20025;-73
2024/04/04 08:08:48;;;;;;;3.90;1.17;;;;;;;;;;5035927;28;20424;-73
2024/04/04 08:11:15;;;;;;;8.20;1.73;;;;;;;;;;5032946;28;20032;-73
2024/04/04 08:13:43;;;;;;;8.05;1.30;;;;;;;;;;5033258;28;20018;-72
2024/04/04 08:16:09;;;;;;;8.45;1.80;;;;;;;;;;5033229;28;20018;-73
2024/04/04 08:18:35;;;;;;;6.70;1.60;;;;;;;;;;5015652;28;20080;-72
2024/04/04 08:21:01;;;;;;;8.30;1.27;;;;;;;;;;5033115;28;20025;-72
2024/04/04 08:23:28;;;;;;;7.00;1.52;;;;;;;;;;5032889;28;20103;-73
2024/04/04 08:25:54;;;;;;;9.73;1.83;;;;;;;;;;5043468;28;20025;-73
2024/04/04 08:28:20;;;;;;;9.07;1.77;;;;;;;;;;5052195;28;20029;-73
2024/04/04 08:30:46;;;;;;;9.85;3.05;;;;;;;;;;5034753;28;20025;-73
2024/04/04 08:33:13;;;;;;;7.15;1.30;;;;;;;;;;5052495;28;20490;-72
2024/04/04 08:35:39;;;;;;;9.35;1.73;;;;;;;;;;5054554;28;20021;-73
2024/04/04 08:38:05;;;;;;;6.22;1.33;;;;;;;;;;5056434;28;20032;-73
2024/04/04 08:40:31;;;;;;;9.10;1.27;;;;;;;;;;5056352;28;20095;-73
2024/04/04 08:42:59;;;;;;;10.52;1.75;;;;;;;;;;5057245;28;20021;-73
2024/04/04 08:45:27;;;;;;;10.32;2.15;;;;;;;;;;5037972;28;20028;-72
2024/04/04 08:47:53;;;;;;;12.02;2.10;;;;;;;;;;5055996;28;20032;-73
2024/04/04 08:50:19;;;;;;;7.07;1.30;;;;;;;;;;5038776;28;20028;-72
2024/04/04 08:52:45;;;;;;;4.55;1.70;;;;;;;;;;5056037;28;20025;-72
2024/04/04 08:55:11;;;;;;;4.38;1.08;;;;;;;;;;5057274;28;20360;-72
2024/04/04 08:57:37;;;;;;;8.50;1.90;;;;;;;;;;5057271;28;20036;-72
2024/04/04 09:00:11;;;;;;;6.80;1.58;;;;;;;;;;5060689;28;20040;-72
2024/04/04 09:02:40;;;;;;;12.27;2.33;;;;;;;;;;5062468;28;20486;-73
2024/04/04 09:05:07;;;;;;;3.10;1.25;;;;;;;;;;5063413;28;20033;-73
2024/04/04 09:07:37;;;;;;;8.10;1.58;;;;;;;;;;5046907;28;20021;-73
2024/04/04 09:10:03;;;;;;;7.90;1.77;;;;;;;;;;5063502;28;20028;-73
2024/04/04 09:12:30;;;;;;;5.22;1.50;;;;;;;;;;5046290;28;20040;-73
2024/04/04 09:15:03;;;;;;;9.45;2.05;;;;;;;;;;5063767;28;20383;-72
2024/04/04 09:17:29;;;;;;;7.82;1.90;;;;;;;;;;5044208;28;20039;-73
2024/04/04 09:19:55;;;;;;;7.32;1.60;;;;;;;;;;5043754;28;20039;-74
2024/04/04 09:22:23;;;;;;;5.40;1.50;;;;;;;;;;5043572;28;20052;-73
2024/04/04 09:24:49;;;;;;;8.05;2.05;;;;;;;;;;5061985;28;20032;-73
2024/04/04 09:27:19;;;;;;;10.65;2.38;;;;;;;;;;5044873;28;20067;-73
2024/04/04 09:29:46;;;;;;;3.80;1.25;;;;;;;;;;5063281;28;20031;-73
2024/04/04 09:32:13;;;;;;;7.20;1.65;;;;;;;;;;5062266;28;20033;-72
2024/04/04 09:34:40;;;;;;;4.75;1.20;;;;;;;;;;5062661;28;20032;-73
2024/04/04 09:37:08;;;;;;;6.18;1.70;;;;;;;;;;5043901;28;20044;-73
2024/04/04 09:39:34;;;;;;;7.70;1.80;;;;;;;;;;5043974;28;20027;-72
2024/04/04 09:42:00;;;;;;;5.32;1.42;;;;;;;;;;5062613;28;20100;-73
2024/04/04 09:44:26;;;;;;;8.40;1.50;;;;;;;;;;5044236;28;20493;-72
2024/04/04 09:46:53;;;;;;;4.15;1.20;;;;;;;;;;5041920;28;20106;-72
2024/04/04 09:49:19;;;;;;;3.75;1.10;;;;;;;;;;5057230;28;20029;-73
2024/04/04 09:51:46;;;;;;;7.97;1.50;;;;;;;;;;5038696;28;20032;-72
2024/04/04 09:54:12;;;;;;;4.25;0.98;;;;;;;;;;5056419;28;20040;-72
2024/04/04 09:56:40;;;;;;;2.75;0.90;;;;;;;;;;5056594;28;20025;-73
2024/04/04 09:59:07;;;;;;;2.53;0.90;;;;;;;;;;5057093;28;20487;-73
2024/04/04 10:01:37;;;;;;;2.53;0.90;;;;;;;;;;5056085;28;20029;-74
2024/04/04 10:04:05;;;;;;;3.67;1.03;;;;;;;;;;5037940;28;20025;-72
2024/04/04 10:06:37;;;;;;;2.88;1.05;;;;;;;;;;5034044;28;20021;-73
2024/04/04 10:09:15;;;;;;;1.23;0.40;;;;;;;;;;5046466;28;20068;-72
2024/04/04 10:11:41;;;;;;;0.80;0.57;;;;;;;;;;5049645;28;20024;-72
2024/04/04 10:14:14;;;;;;;1.15;0.38;;;;;;;;;;5054298;28;20032;-73
2024/04/04 10:16:45;;;;;;;1.02;0.40;;;;;;;;;;5053981;28;20043;-72
2024/04/04 10:19:18;;;;;;;1.73;0.60;;;;;;;;;;5055735;28;20063;-72
2024/04/04 10:21:45;;;;;;;4.75;1.30;;;;;;;;;;5039720;28;20067;-72
2024/04/04 10:24:27;;;;;;;3.00;0.57;;;;;;;;;;5060989;28;20109;-73
2024/04/04 10:27:02;;;;;;;1.75;0.40;;;;;;;;;;5056529;28;20036;-75
2024/04/04 10:29:30;;;;;;;3.10;0.73;;;;;;;;;;5038799;28;20487;-73
2024/04/04 10:31:56;;;;;;;2.03;0.50;;;;;;;;;;5056574;28;20029;-74
2024/04/04 10:34:22;;;;;;;2.53;0.38;;;;;;;;;;5056559;28;20017;-74
2024/04/04 10:36:48;;;;;;;4.28;0.70;;;;;;;;;;5028299;28;20029;-75
2024/04/04 10:39:21;;;;;;;2.15;0.50;;;;;;;;;;5058699;28;20021;-74
2024/04/04 10:41:49;;;;;;;2.00;0.40;;;;;;;;;;5059942;28;20159;-74
2024/04/04 10:44:16;;;;;;;1.45;0.50;;;;;;;;;;5043175;28;20530;-74
2024/04/04 10:46:46;;;;;;;1.88;0.30;;;;;;;;;;5062828;28;20029;-73
2024/04/04 10:49:13;;;;;;;1.98;0.47;;;;;;;;;;5061625;28;20078;-74
2024/04/04 10:51:41;;;;;;;1.80;0.30;;;;;;;;;;5033244;28;20025;-73
2024/04/04 10:54:07;;;;;;;3.33;0.30;;;;;;;;;;5062667;28;20083;-74
2024/04/04 10:56:34;;;;;;;0.93;0.30;;;;;;;;;;5061050;28;20013;-73
2024/04/04 10:59:00;;;;;;;2.55;0.75;;;;;;;;;;5059444;28;20024;-73
2024/04/04 11:01:27;;;;;;;1.67;0.30;;;;;;;;;;5057487;28;20014;-73
2024/04/04 11:03:57;;;;;;;1.77;0.32;;;;;;;;;;5037755;28;20023;-72
2024/04/04 11:06:29;;;;;;;4.93;0.50;;;;;;;;;;5055423;28;20025;-73
2024/04/04 11:08:56;;;;;;;1.27;0.40;;;;;;;;;;5054932;28;20332;-73
2024/04/04 11:11:24;;;;;;;2.40;0.60;;;;;;;;;;5054664;28;20061;-72
2024/04/04 11:13:50;;;;;;;0.60;0.20;;;;;;;;;;5056349;28;20447;-73
2024/04/04 11:16:16;;;;;;;2.10;0.60;;;;;;;;;;5037337;28;20017;-72
2024/04/04 11:18:43;;;;;;;2.20;0.60;;;;;;;;;;5037208;28;20029;-73
2024/04/04 11:21:10;;;;;;;1.58;0.60;;;;;;;;;;5036660;28;20017;-72
2024/04/04 11:23:36;;;;;;;1.92;0.38;;;;;;;;;;5055441;28;20013;-74
2024/04/04 11:26:02;;;;;;;3.35;0.70;;;;;;;;;;5055124;28;20097;-74
2024/04/04 11:28:28;;;;;;;0.73;0.30;;;;;;;;;;5036746;28;20462;-74
2024/04/04 11:30:54;;;;;;;3.15;0.43;;;;;;;;;;5054176;28;20032;-74
2024/04/04 11:33:21;;;;;;;3.95;0.30;;;;;;;;;;5035761;28;20395;-73
2024/04/04 11:35:47;;;;;;;0.85;0.40;;;;;;;;;;5036118;28;20364;-74
2024/04/04 11:38:13;;;;;;;1.88;0.40;;;;;;;;;;5054214;28;20101;-73
2024/04/04 11:40:40;;;;;;;2.55;0.50;;;;;;;;;;5035946;28;20029;-74
2024/04/04 11:43:06;;;;;;;1.20;0.20;;;;;;;;;;5054276;28;20024;-73
2024/04/04 11:45:32;;;;;;;1.25;0.47;;;;;;;;;;5055026;28;20036;-74
2024/04/04 11:47:58;;;;;;;1.80;0.30;;;;;;;;;;5053628;28;20029;-73
2024/04/04 11:50:24;;;;;;;1.45;0.38;;;;;;;;;;5052989;28;20029;-74
2024/04/04 11:52:50;;;;;;;2.30;0.45;;;;;;;;;;5035300;28;20021;-74
2024/04/04 11:55:16;;;;;;;0.45;0.38;;;;;;;;;;5036248;28;20024;-73
2024/04/04 11:57:42;;;;;;;2.03;0.30;;;;;;;;;;5053520;28;20021;-75
2024/04/04 12:00:11;;;;;;;1.10;0.20;;;;;;;;;;5030217;28;20048;-74
2024/04/04 12:02:37;;;;;;;2.03;0.47;;;;;;;;;;5023520;28;20033;-74
2024/04/04 12:05:05;;;;;;;3.20;0.70;;;;;;;;;;5030199;28;20086;-74
2024/04/04 12:07:31;;;;;;;1.02;0.38;;;;;;;;;;5042146;28;20379;-74
2024/04/04 12:09:58;;;;;;;0.93;0.20;;;;;;;;;;5034187;28;20036;-73
2024/04/04 12:12:24;;;;;;;1.73;0.38;;;;;;;;;;5039655;28;20032;-73
2024/04/04 12:14:50;;;;;;;1.10;0.40;;;;;;;;;;5059296;28;20021;-73
2024/04/04 12:17:16;;;;;;;4.18;0.50;;;;;;;;;;5059495;28;20017;-74
2024/04/04 12:19:42;;;;;;;1.33;0.43;;;;;;;;;;5061272;28;20433;-74
2024/04/04 12:22:08;;;;;;;6.22;0.32;;;;;;;;;;5060320;28;20029;-74
2024/04/04 12:24:35;;;;;;;3.63;0.65;;;;;;;;;;5043613;28;20506;-73
2024/04/04 12:27:01;;;;;;;1.52;0.30;;;;;;;;;;5062468;28;20391;-73
2024/04/04 12:29:27;;;;;;;1.02;0.30;;;;;;;;;;5041836;28;20384;-73
2024/04/04 12:31:54;;;;;;;0.90;0.30;;;;;;;;;;5061402;28;20431;-73
2024/04/04 12:34:23;;;;;;;6.25;0.82;;;;;;;;;;5045910;28;20025;-73
2024/04/04 12:36:49;;;;;;;0.90;0.30;;;;;;;;;;5041872;28;20475;-73
2024/04/04 12:39:15;;;;;;;1.35;0.40;;;;;;;;;;5041477;28;20475;-73
2024/04/04 12:41:41;;;;;;;1.23;0.25;;;;;;;;;;5060908;28;20021;-73
2024/04/04 12:44:08;;;;;;;3.65;0.40;;;;;;;;;;5058168;28;20131;-72
2024/04/04 12:46:35;;;;;;;1.25;0.88;;;;;;;;;;5039599;28;20037;-72
2024/04/04 12:49:01;;;;;;;2.03;0.50;;;;;;;;;;5040756;28;20029;-73
2024/04/04 12:51:28;;;;;;;1.33;0.40;;;;;;;;;;5065093;28;20029;-72
2024/04/04 12:53:54;;;;;;;4.00;0.73;;;;;;;;;;5048725;28;20098;-73
2024/04/04 12:56:23;;;;;;;2.38;0.65;;;;;;;;;;5043844;28;20029;-72
2024/04/04 12:58:49;;;;;;;1.55;0.57;;;;;;;;;;5059260;28;20025;-73
2024/04/04 13:01:15;;;;;;;0.73;0.20;;;;;;;;;;5038830;28;20028;-73
2024/04/04 13:03:41;;;;;;;3.35;0.45;;;;;;;;;;5056595;28;20502;-73
2024/04/04 13:06:10;;;;;;;1.52;0.38;;;;;;;;;;5038637;28;20380;-72
2024/04/04 13:08:36;;;;;;;2.80;1.10;;;;;;;;;;5056811;28;20029;-72
2024/04/04 13:11:02;;;;;;;1.80;0.65;;;;;;;;;;5038492;28;20025;-72
2024/04/04 13:13:28;;;;;;;2.88;0.85;;;;;;;;;;5060748;28;20021;-74
2024/04/04 13:15:54;;;;;;;6.25;0.90;;;;;;;;;;5058457;28;20097;-72
2024/04/04 13:18:21;;;;;;;1.52;0.77;;;;;;;;;;5056690;28;20472;-72
2024/04/04 13:20:47;;;;;;;2.83;0.63;;;;;;;;;;5036886;28;20495;-71
2024/04/04 13:23:13;;;;;;;1.65;0.30;;;;;;;;;;5054189;28;20028;-74
2024/04/04 13:25:39;;;;;;;2.05;0.30;;;;;;;;;;5037729;28;20028;-74
2024/04/04 13:28:05;;;;;;;1.58;0.40;;;;;;;;;;5055799;28;20025;-73
2024/04/04 13:30:31;;;;;;;2.42;0.55;;;;;;;;;;5054642;28;20439;-73
2024/04/04 13:32:57;;;;;;;0.98;0.40;;;;;;;;;;5054429;28;20025;-73
2024/04/04 13:35:24;;;;;;;4.38;0.40;;;;;;;;;;5056035;28;20021;-72
2024/04/04 13:37:50;;;;;;;2.38;0.40;;;;;;;;;;5036975;28;20048;-72
2024/04/04 13:40:16;;;;;;;2.15;0.77;;;;;;;;;;5054352;28;20092;-72
2024/04/04 13:42:42;;;;;;;1.02;0.30;;;;;;;;;;5036240;28;20021;-72
2024/04/04 13:45:11;;;;;;;0.85;0.47;;;;;;;;;;5054748;28;20040;-74
2024/04/04 13:47:39;;;;;;;1.83;0.30;;;;;;;;;;5054868;28;20032;-74
2024/04/04 13:50:05;;;;;;;0.65;0.20;;;;;;;;;;5036603;28;20025;-74
2024/04/04 13:52:31;;;;;;;2.08;0.50;;;;;;;;;;5054463;28;20021;-73
2024/04/04 13:54:59;;;;;;;2.10;0.45;;;;;;;;;;5054124;28;20109;-75
2024/04/04 13:57:25;;;;;;;6.45;0.57;;;;;;;;;;5054585;28;20016;-73
2024/04/04 13:59:51;;;;;;;3.17;0.47;;;;;;;;;;5036322;28;20196;-72
2024/04/04 14:02:17;;;;;;;1.92;0.38;;;;;;;;;;5036377;28;20032;-72
2024/04/04 14:04:45;;;;;;;1.77;0.63;;;;;;;;;;5054199;28;20016;-73
2024/04/04 14:07:11;;;;;;;2.78;0.63;;;;;;;;;;5036547;28;20032;-73
2024/04/04 14:09:37;;;;;;;4.18;0.52;;;;;;;;;;5054389;28;20029;-72
2024/04/04 14:12:03;;;;;;;1.67;0.30;;;;;;;;;;5053469;28;20021;-73
2024/04/04 14:14:29;;;;;;;1.95;0.60;;;;;;;;;;5054219;28;20025;-74
2024/04/04 14:16:57;;;;;;;0.57;0.30;;;;;;;;;;5053729;28;20017;-74
2024/04/04 14:19:23;;;;;;;2.88;0.55;;;;;;;;;;5037546;28;20093;-74
2024/04/04 14:21:49;;;;;;;5.00;0.50;;;;;;;;;;5054877;28;20083;-74
2024/04/04 14:24:15;;;;;;;1.02;0.50;;;;;;;;;;5054740;28;20498;-73
2024/04/04 14:26:41;;;;;;;1.05;0.30;;;;;;;;;;5038762;28;20383;-73
2024/04/04 14:29:08;;;;;;;4.50;0.43;;;;;;;;;;5037301;28;20490;-75
2024/04/04 14:31:34;;;;;;;4.85;1.85;;;;;;;;;;5037883;28;20021;-74
2024/04/04 14:34:01;;;;;;;1.20;0.20;;;;;;;;;;5035071;28;20017;-74
2024/04/04 14:36:28;;;;;;;0.82;0.30;;;;;;;;;;5035514;28;20497;-74
2024/04/04 14:38:54;;;;;;;0.85;0.20;;;;;;;;;;5054378;28;20049;-73